KOLS/OLS METAR and TAF weather

Enter ICAO airport designator
Station Type Date Time Source
KOLS METAR 2019/08/22 08:54 UTC NOAA

KOLS 220854Z AUTO 15009KT 10SM CLR 24/13 A3002 RMK AO2 SLP078 T02440133 50001 $


Station Type Date Time Source
KOLS Decoded METAR 2019/08/22 08:54 UTC NOAA

Station name not available
Aug 22, 2019 - 04:54 AM EDT / 2019.08.22 0854 UTC
Wind: from the SSE (150 degrees) at 10 MPH (9 KT):0
Visibility: 10 mile(s):0
Sky conditions: clear
Temperature: 75.9 F (24.4 C)
Dew Point: 55.9 F (13.3 C)
Relative Humidity: 49%
Pressure (altimeter): 30.02 in. Hg (1016 hPa)
Pressure tendency: 0.00 inches (0.1 hPa) higher than three hours ago
ob: KOLS 220854Z AUTO 15009KT 10SM CLR 24/13 A3002 RMK AO2 SLP078 T02440133 50001
cycle: 9

Station Type Date Time Source
KOLS TAF 2019/08/22 06:27 UTC NOAA

TAF KOLS 220524Z 2206/2306 13007KT P6SM SCT110 BKN200
FM222000 18007KT P6SM VCSH BKN070 OVC200 PROB30 2300/2304 P6SM -TSRA BKN050CB

Example: see airport list